Weather at Astypalaia Airport

Public forecast

Using degrees Celsius for public forecast. Weather courtesy of forecast.io.

Closest aviation weather report (METAR) to Astypalaia Airport

Report is more than 6 hours old.

Closest report is Kos Airport, 36.8 nm (68.1 km) ENE.

2022/11/14 15:20 (retrieved 2 years ago)

LGKO 141520Z 34008KT CAVOK 19/11 Q1018

Closest aviation forecast (TAF) to Astypalaia Airport

Forecast is more than 12 hours old.

Closest forecast is Kos Airport, 36.8 nm (68.1 km) ENE.

2023/02/22 18:13 (retrieved 1 year ago)

TAF LGKO 221700Z 2218/2318 VRB05KT 9999 SCT018 PROB30 2300/2306 5000 BR SCT008